全部
Cowell Airport (Cowell, South Australia) YCWL 天气
There is no TAF data available at YCWL or any nearby airports.
There is no METAR data available at YCWL. Showing METAR data for YCEE (22 mi W).
CVC近期METAR历史数据(YCWL无数据)
| Date | Time (ACST) | Flight Rules | Wind Dir. | Speed | Type | Height AGL (ft) | Visibility | Temp (°C) | Temp (°F) | Dew Point (°C) | Dew Point (°F) | Rel. Humid. | Pressure | Density Altitude | Remarks |
|---|---|---|---|---|---|---|---|---|---|---|---|---|---|---|---|
| 04-五月 | 19:30 | n/a | 270° | 8 kt | Missing | 13° | 55° | 10° | 50° | 82% | 1020 mb | 148 ft | |||
| 04-五月 | 18:30 | n/a | 250° | 8 kt | Missing | 14° | 57° | 9° | 48° | 72% | 1019 mb | 298 ft | |||
| 04-五月 | 17:30 | n/a | 250° | 13 kt | Missing | 16° | 60° | 10° | 50° | 68% | 1018 mb | 567 ft | |||
| 04-五月 | 16:30 | n/a | 220° | 13 kt | Missing | 18° | 64° | 9° | 48° | 56% | 1017 mb | 837 ft | |||
| 04-五月 | 15:30 | n/a | 260° | 13 kt | Missing | 19° | 66° | 8° | 46° | 49% | 1017 mb | 957 ft | |||
| 04-五月 | 14:30 | n/a | 260° | 14 kt | Missing | 19° | 66° | 6° | 42° | 43% | 1016 mb | 987 ft | |||
| 04-五月 | 13:30 | n/a | 250° | 13 kt | Missing | 18° | 64° | 9° | 48° | 56% | 1016 mb | 867 ft | |||
| 04-五月 | 12:30 | n/a | 260° | 12 kt | Missing | 18° | 64° | 11° | 51° | 64% | 1017 mb | 837 ft | |||
| 04-五月 | 11:30 | n/a | 260° | 13 kt | Missing | 17° | 62° | 11° | 51° | 68% | 1017 mb | 717 ft | |||
| 04-五月 | 10:30 | n/a | 280° | 11 kt | Missing | 15° | 59° | 12° | 53° | 82% | 1017 mb | 477 ft | |||
| 04-五月 | 09:30 | n/a | 290° | 13 kt | Missing | 14° | 57° | 12° | 53° | 88% | 1017 mb | 357 ft | |||
| 04-五月 | 08:30 | n/a | 290° | 11 kt | Missing | 13° | 55° | 11° | 51° | 88% | 1016 mb | 267 ft | |||
| 04-五月 | 07:30 | n/a | 290° | 11 kt | Missing | 12° | 53° | 10° | 50° | 88% | 1015 mb | 176 ft | |||
| 04-五月 | 06:30 | n/a | 300° | 11 kt | Missing | 11° | 51° | 10° | 50° | 94% | 1015 mb | 56 ft | |||
| 04-五月 | 05:30 | n/a | 300° | 12 kt | Missing | 11° | 51° | 9° | 48° | 87% | 1014 mb | 86 ft | |||
| 04-五月 | 04:30 | n/a | 310° | 12 kt | Missing | 11° | 51° | 10° | 50° | 94% | 1014 mb | 86 ft | |||
| 04-五月 | 03:30 | n/a | 310° | 12 kt | Missing | 12° | 53° | 10° | 50° | 88% | 1014 mb | 206 ft | |||
| 04-五月 | 02:30 | n/a | 300° | 12 kt | Missing | 11° | 51° | 10° | 50° | 94% | 1014 mb | 86 ft | |||
| 04-五月 | 01:30 | n/a | 310° | 13 kt | Missing | 12° | 53° | 10° | 50° | 88% | 1014 mb | 206 ft | |||
| 04-五月 | 00:30 | n/a | 310° | 13 kt | Missing | 12° | 53° | 10° | 50° | 88% | 1014 mb | 206 ft | |||
| 03-五月 | 23:30 | n/a | 310° | 14 kt | Missing | 12° | 53° | 10° | 50° | 88% | 1014 mb | 206 ft | |||
| 03-五月 | 22:30 | n/a | 310° | 14 kt | Missing | 12° | 53° | 10° | 50° | 88% | 1014 mb | 206 ft | |||
| 03-五月 | 21:30 | n/a | 310° | 14 kt | Missing | 13° | 55° | 9° | 48° | 77% | 1014 mb | 326 ft | |||
| 03-五月 | 20:30 | n/a | 300° | 15 kt | Missing | 13° | 55° | 9° | 48° | 77% | 1014 mb | 326 ft |
登录
| 您的浏览器不支持. 升级您的浏览器 |
